SFQ weather

Şanlıurfa Airport
Şanlıurfa, Şanlıurfa Province, Turkey

Public forecast

Using degrees Celsius for public forecast. Weather courtesy of forecast.io.

Closest aviation weather report (METAR) to Şanlıurfa Airport

Closest report is Şanlıurfa GAP Airport, 21.2 nm (39.3 km) N. Retrieved 2020/06/06 19:50 UTC (29 minutes ago):

LTCS 061950Z 03007KT CAVOK 25/01 Q1016 RMK RWY22 07004KT

Closest aviation forecast (TAF) to Şanlıurfa Airport

Closest forecast is Şanlıurfa GAP Airport, 21.2 nm (39.3 km) N. Retrieved 2020/06/06 18:00 UTC (2 hours ago):

TAF LTCS 061640Z 0618/0718 VRB02KT CAVOK